F/V J. Louis Vincent — FQBL — position and weather

sailwx.info

Track history (hours):
 
Tides and Currents Weather Stations Pressure Air Temp Water Temp Dewpoint Dewpoint Depression Visibility Wind Speed Wind Dir Waves Ship Positions

F/V J. Louis Vincent

Last reported at 2015-May-29 16:16 UTC. Time now 2015-May-30 14:39 UTC.
Position N 43°24' E 003°42'.

Length 29 m.

Type: Fishing. MMSI: 227146600.

Date/timePositionNaut miles runAvg speedWind from/ knotsBaromVisibWave heightAir tempDewpointWater temp
2015-May-29 16:16N 43°24' E 003°42'2 2.3
2015-May-29 15:33N 43°24' E 003°44'2 1.6
2015-May-29 14:33N 43°23' E 003°42'1212.1
2015-May-29 13:33N 43°12' E 003°46'14 6.4
2015-May-29 11:24N 42°58' E 003°45'4 4.3
2015-May-29 10:33N 42°56' E 003°40'3 3.3
2015-May-29 09:33N 42°53' E 003°38'4 4.2
2015-May-29 08:31N 42°51' E 003°32'1 0.3
2015-May-29 05:24N 42°51' E 003°32'4 4.3
2015-May-29 04:33N 42°54' E 003°33'4 4.4
2015-May-29 03:33N 42°58' E 003°36'6 5.8
2015-May-29 02:33N 43°04' E 003°37'1212.0
2015-May-29 01:33N 43°16' E 003°40'9 1.0
2015-May-28 16:33N 43°24' E 003°42'1 1.0
2015-May-28 15:33N 43°23' E 003°42'  
Track history (hours):
 
Tides and Currents Weather Stations Pressure Air Temp Water Temp Dewpoint Dewpoint Depression Visibility Wind Speed Wind Dir Waves Ship Positions

F/V J. Louis Vincent

Last reported at 2015-May-29 16:16 UTC. Time now 2015-May-30 14:39 UTC.
Position N 43°24' E 003°42'.

Length 29 m.

Type: Fishing. MMSI: 227146600.

Date/timePositionNaut miles runAvg speedWind from/ knotsBaromVisibWave heightAir tempDewpointWater temp
2015-May-29 16:16N 43°24' E 003°42'2 2.3
2015-May-29 15:33N 43°24' E 003°44'2 1.6
2015-May-29 14:33N 43°23' E 003°42'1212.1
2015-May-29 13:33N 43°12' E 003°46'14 6.4
2015-May-29 11:24N 42°58' E 003°45'4 4.3
2015-May-29 10:33N 42°56' E 003°40'3 3.3
2015-May-29 09:33N 42°53' E 003°38'4 4.2
2015-May-29 08:31N 42°51' E 003°32'1 0.3
2015-May-29 05:24N 42°51' E 003°32'4 4.3
2015-May-29 04:33N 42°54' E 003°33'4 4.4
2015-May-29 03:33N 42°58' E 003°36'6 5.8
2015-May-29 02:33N 43°04' E 003°37'1212.0
2015-May-29 01:33N 43°16' E 003°40'9 1.0
2015-May-28 16:33N 43°24' E 003°42'1 1.0
2015-May-28 15:33N 43°23' E 003°42'  

Dump ship's entire track history